Time;durP1;ratioP1;P1;durP2;ratioP2;P2;SDS_P1;SDS_P2;PMS_P1;PMS_P2;Temp;Humidity;BMP_temperature;BMP_pressure;BME280_temperature;BME280_humidity;BME280_pressure;Samples;Min_cycle;Max_cycle;Signal;HPM_P1;HPM_P2
2023/07/10 00:01:19;;;;;;;20.52;13.75;;;20.00;99.90;;;;;;5037573;28;20153;-65
2023/07/10 00:03:45;;;;;;;21.80;13.25;;;20.00;99.90;;;;;;5034334;28;20139;-66
2023/07/10 00:06:14;;;;;;;22.85;14.50;;;19.90;99.90;;;;;;5027472;28;20081;-65
2023/07/10 00:08:40;;;;;;;18.95;13.88;;;20.00;99.90;;;;;;5031393;28;20045;-65
2023/07/10 00:11:28;;;;;;;22.27;13.60;;;20.00;99.90;;;;;;5029507;28;20116;-65
2023/07/10 00:13:54;;;;;;;23.48;14.55;;;20.00;99.90;;;;;;5025641;28;20587;-65
2023/07/10 00:16:21;;;;;;;22.60;15.10;;;20.00;99.90;;;;;;5027041;28;20041;-65
2023/07/10 00:18:48;;;;;;;23.98;15.38;;;20.00;99.90;;;;;;5020275;28;20513;-65
2023/07/10 00:21:14;;;;;;;22.30;16.13;;;20.00;99.90;;;;;;5022133;28;20045;-66
2023/07/10 00:23:39;;;;;;;24.13;14.98;;;19.90;99.90;;;;;;5030296;28;20395;-65
2023/07/10 00:26:24;;;;;;;24.33;14.90;;;20.00;99.90;;;;;;5031745;28;20328;-65
2023/07/10 00:28:52;;;;;;;24.02;14.35;;;20.00;99.90;;;;;;5029047;28;20052;-65
2023/07/10 00:31:18;;;;;;;24.08;16.02;;;19.90;99.90;;;;;;5032321;28;20034;-65
2023/07/10 00:33:47;;;;;;;25.15;16.05;;;19.90;99.90;;;;;;5030999;28;20122;-65
2023/07/10 00:36:29;;;;;;;25.85;15.80;;;19.90;99.90;;;;;;5031789;28;20446;-65
2023/07/10 00:38:55;;;;;;;26.05;15.00;;;19.90;99.90;;;;;;5028198;28;20044;-65
2023/07/10 00:41:29;;;;;;;28.55;15.73;;;19.80;99.90;;;;;;5031753;28;20033;-64
2023/07/10 00:43:58;;;;;;;27.50;15.20;;;19.80;99.90;;;;;;5030434;28;20045;-65
2023/07/10 00:46:45;;;;;;;23.50;13.95;;;19.80;99.90;;;;;;5030283;28;20041;-65
2023/07/10 00:49:32;;;;;;;22.73;14.25;;;19.80;99.90;;;;;;5029378;28;20161;-65
2023/07/10 00:52:12;;;;;;;23.83;14.23;;;19.80;99.90;;;;;;5030656;28;20399;-65
2023/07/10 00:54:43;;;;;;;25.60;14.45;;;19.80;99.90;;;;;;5016180;28;20044;-65
2023/07/10 00:57:33;;;;;;;24.08;13.75;;;19.80;99.90;;;;;;5038735;28;20053;-65
2023/07/10 01:00:00;;;;;;;25.02;14.57;;;19.80;99.90;;;;;;5031934;28;20049;-65
2023/07/10 01:02:27;;;;;;;22.17;14.10;;;19.80;99.90;;;;;;5034826;28;20072;-65
2023/07/10 01:05:00;;;;;;;23.83;13.85;;;19.80;99.90;;;;;;5030946;28;20041;-65
2023/07/10 01:07:29;;;;;;;21.05;14.05;;;19.80;99.90;;;;;;5015071;28;20521;-65
2023/07/10 01:10:02;;;;;;;27.20;14.40;;;19.80;99.90;;;;;;5022549;28;20030;-65
2023/07/10 01:12:30;;;;;;;21.10;13.98;;;19.80;99.90;;;;;;5029466;28;20041;-65
2023/07/10 01:14:56;;;;;;;18.75;13.40;;;19.80;99.90;;;;;;5028105;28;20091;-65
2023/07/10 01:17:22;;;;;;;20.48;14.65;;;19.80;99.90;;;;;;5031928;28;20053;-65
2023/07/10 01:19:49;;;;;;;20.65;13.38;;;19.80;99.90;;;;;;5028356;28;20442;-64
2023/07/10 01:22:15;;;;;;;23.77;14.82;;;19.80;99.90;;;;;;5041355;28;20132;-65
2023/07/10 01:24:42;;;;;;;18.70;13.52;;;19.90;99.90;;;;;;5032284;28;20083;-64
2023/07/10 01:27:12;;;;;;;18.33;13.68;;;19.90;99.90;;;;;;5032465;28;20487;-65
2023/07/10 01:29:43;;;;;;;21.67;14.18;;;19.90;99.90;;;;;;5030435;28;20518;-65
2023/07/10 01:32:12;;;;;;;21.80;14.90;;;19.90;99.90;;;;;;5031797;28;20053;-66
2023/07/10 01:34:49;;;;;;;24.90;14.25;;;19.90;99.90;;;;;;5033931;28;20559;-66
2023/07/10 01:37:14;;;;;;;20.48;14.10;;;19.90;99.90;;;;;;5021377;28;20049;-66
2023/07/10 01:39:52;;;;;;;22.00;14.10;;;19.90;99.90;;;;;;5032112;28;20510;-65
2023/07/10 01:42:18;;;;;;;23.63;15.45;;;19.90;99.90;;;;;;5028528;28;20037;-65
2023/07/10 01:44:46;;;;;;;21.08;15.30;;;19.90;99.90;;;;;;5032236;28;20038;-65
2023/07/10 01:47:14;;;;;;;21.63;15.55;;;20.00;99.90;;;;;;5032416;28;20547;-65
2023/07/10 01:49:41;;;;;;;23.27;14.75;;;20.00;99.90;;;;;;5032247;28;20041;-66
2023/07/10 01:52:14;;;;;;;25.20;16.33;;;20.00;99.90;;;;;;5032449;28;20033;-65
2023/07/10 01:54:40;;;;;;;25.10;16.73;;;20.00;99.90;;;;;;5030400;28;20542;-65
2023/07/10 01:57:07;;;;;;;22.67;15.82;;;20.00;99.90;;;;;;5031755;28;20121;-65
2023/07/10 01:59:33;;;;;;;25.00;15.73;;;20.00;99.90;;;;;;4996637;28;20034;-66
2023/07/10 02:02:00;;;;;;;21.65;15.82;;;20.00;99.90;;;;;;5030528;28;20033;-65
2023/07/10 02:04:26;;;;;;;22.23;16.42;;;19.90;99.90;;;;;;5031710;28;20514;-65
2023/07/10 02:06:55;;;;;;;26.45;16.65;;;19.90;99.90;;;;;;5030685;28;20116;-65
2023/07/10 02:09:25;;;;;;;28.85;18.52;;;19.90;99.90;;;;;;5031331;28;20461;-65
2023/07/10 02:11:51;;;;;;;26.30;17.92;;;19.90;99.90;;;;;;5038420;28;20033;-65
2023/07/10 02:14:18;;;;;;;25.10;18.75;;;19.90;99.90;;;;;;5024610;28;20100;-65
2023/07/10 02:16:44;;;;;;;26.98;18.55;;;19.90;99.90;;;;;;5033192;28;20037;-65
2023/07/10 02:19:10;;;;;;;30.15;18.38;;;19.90;99.90;;;;;;5031574;28;20136;-65
2023/07/10 02:21:36;;;;;;;24.38;17.67;;;19.90;99.90;;;;;;5032076;28;20478;-65
2023/07/10 02:24:01;;;;;;;31.58;19.23;;;19.80;99.90;;;;;;5031146;28;20088;-65
2023/07/10 02:26:29;;;;;;;25.63;18.38;;;19.80;99.90;;;;;;5031455;28;20398;-65
2023/07/10 02:28:55;;;;;;;24.83;17.63;;;19.80;99.90;;;;;;5033721;28;20034;-65
2023/07/10 02:31:21;;;;;;;28.52;18.23;;;19.80;99.90;;;;;;5013858;28;20120;-65
2023/07/10 02:33:47;;;;;;;25.00;18.33;;;19.80;99.90;;;;;;5020065;28;20152;-65
2023/07/10 02:36:13;;;;;;;27.73;19.27;;;19.80;99.90;;;;;;5033004;28;20042;-65
2023/07/10 02:38:39;;;;;;;29.35;19.30;;;19.80;99.90;;;;;;5031050;28;20116;-65
2023/07/10 02:41:04;;;;;;;25.10;18.25;;;19.80;99.90;;;;;;5017654;28;20164;-65
2023/07/10 02:43:30;;;;;;;33.28;20.70;;;19.80;99.90;;;;;;5026088;28;20396;-65
2023/07/10 02:45:56;;;;;;;28.10;19.38;;;19.80;99.90;;;;;;5029020;28;20032;-65
2023/07/10 02:48:21;;;;;;;28.00;20.05;;;19.80;99.90;;;;;;5031403;28;20037;-65
2023/07/10 02:50:47;;;;;;;31.15;19.83;;;19.80;99.90;;;;;;5032152;28;20456;-65
2023/07/10 02:53:12;;;;;;;28.75;21.52;;;19.80;99.90;;;;;;5021570;28;20037;-65
2023/07/10 02:55:38;;;;;;;27.95;20.42;;;19.80;99.90;;;;;;5015962;28;20053;-65
2023/07/10 02:58:06;;;;;;;28.15;20.45;;;19.80;99.90;;;;;;5032233;28;20136;-65
2023/07/10 03:00:32;;;;;;;32.20;21.23;;;19.80;99.90;;;;;;5030383;28;20114;-65
2023/07/10 03:02:57;;;;;;;31.13;21.73;;;19.70;99.90;;;;;;5031253;28;20432;-66
2023/07/10 03:05:23;;;;;;;34.60;22.65;;;19.80;99.90;;;;;;5032821;28;20073;-65
2023/07/10 03:07:49;;;;;;;32.65;22.77;;;19.80;99.90;;;;;;5032319;28;20092;-66
2023/07/10 03:10:15;;;;;;;32.78;22.42;;;19.80;99.90;;;;;;5029118;28;20030;-66
2023/07/10 03:12:41;;;;;;;35.65;22.17;;;19.80;99.90;;;;;;5023616;28;20037;-66
2023/07/10 03:15:07;;;;;;;29.95;22.08;;;19.70;99.90;;;;;;5024182;28;20037;-66
2023/07/10 03:17:33;;;;;;;39.40;24.00;;;19.70;99.90;;;;;;5034093;28;20112;-66
2023/07/10 03:19:58;;;;;;;36.88;23.33;;;19.80;99.90;;;;;;5033623;28;20552;-66
2023/07/10 03:22:24;;;;;;;33.63;22.10;;;19.80;99.90;;;;;;5030231;28;20069;-66
2023/07/10 03:24:54;;;;;;;30.40;22.00;;;19.70;99.90;;;;;;5029496;28;20069;-66
2023/07/10 03:27:20;;;;;;;33.33;22.77;;;19.60;99.90;;;;;;5027937;28;20099;-66
2023/07/10 03:29:46;;;;;;;38.35;24.67;;;19.80;99.90;;;;;;5036615;28;20479;-66
2023/07/10 03:32:11;;;;;;;34.97;23.45;;;19.70;99.90;;;;;;5022330;28;20083;-66
2023/07/10 03:34:37;;;;;;;36.03;24.05;;;19.70;99.90;;;;;;5033479;28;20029;-66
2023/07/10 03:37:03;;;;;;;32.95;23.23;;;19.70;99.90;;;;;;5025496;28;20046;-66
2023/07/10 03:39:29;;;;;;;34.70;24.33;;;19.70;99.90;;;;;;5029887;28;20510;-65
2023/07/10 03:41:55;;;;;;;35.17;24.73;;;19.70;99.90;;;;;;5032151;28;20042;-66
2023/07/10 03:44:20;;;;;;;40.60;26.02;;;19.80;99.90;;;;;;5030998;28;20036;-66
2023/07/10 03:46:46;;;;;;;34.22;23.63;;;19.70;99.90;;;;;;5026461;28;20033;-65
2023/07/10 03:49:12;;;;;;;34.13;23.02;;;19.60;99.90;;;;;;5036403;28;20372;-66
2023/07/10 03:51:38;;;;;;;34.92;23.60;;;19.60;99.90;;;;;;5025089;28;20026;-65
2023/07/10 03:54:05;;;;;;;31.65;23.08;;;19.50;99.90;;;;;;5030305;28;20116;-66
2023/07/10 03:56:30;;;;;;;33.47;24.13;;;19.50;99.90;;;;;;5027244;28;20034;-65
2023/07/10 03:58:56;;;;;;;37.42;23.38;;;19.50;99.90;;;;;;5029547;28;20048;-66
2023/07/10 04:01:22;;;;;;;35.85;22.77;;;19.60;99.90;;;;;;5027633;28;20494;-66
2023/07/10 04:03:48;;;;;;;37.17;23.52;;;19.50;99.90;;;;;;5030476;28;20041;-66
2023/07/10 04:06:15;;;;;;;32.33;21.45;;;19.50;99.90;;;;;;5034599;28;20041;-66
2023/07/10 04:08:42;;;;;;;31.35;22.55;;;19.50;99.90;;;;;;5029875;28;20276;-66
2023/07/10 04:11:13;;;;;;;28.08;20.77;;;19.50;99.90;;;;;;5029720;28;20033;-66
2023/07/10 04:13:39;;;;;;;29.58;20.67;;;19.40;99.90;;;;;;5026610;28;20091;-66
2023/07/10 04:16:10;;;;;;;33.28;21.05;;;19.40;99.90;;;;;;5027169;28;20029;-66
2023/07/10 04:18:38;;;;;;;29.25;20.00;;;19.40;99.90;;;;;;5027735;28;20052;-66
2023/07/10 04:21:07;;;;;;;31.05;18.75;;;19.40;99.90;;;;;;5029666;28;20041;-66
2023/07/10 04:23:33;;;;;;;30.33;20.98;;;19.40;99.90;;;;;;5029210;28;20048;-66
2023/07/10 04:25:59;;;;;;;27.33;20.02;;;19.40;99.90;;;;;;5028943;28;20044;-66
2023/07/10 04:28:25;;;;;;;25.13;18.58;;;19.40;99.90;;;;;;5030853;28;20038;-66
2023/07/10 04:30:51;;;;;;;29.48;19.52;;;19.40;99.90;;;;;;5030422;28;20483;-66
2023/07/10 04:33:20;;;;;;;32.25;20.63;;;19.40;99.90;;;;;;5030482;28;20033;-66
2023/07/10 04:35:55;;;;;;;29.27;20.02;;;19.40;99.90;;;;;;5030030;28;20033;-66
2023/07/10 04:38:23;;;;;;;26.85;20.20;;;19.40;99.90;;;;;;5030230;28;20040;-66
2023/07/10 04:41:00;;;;;;;26.48;20.45;;;19.40;99.90;;;;;;5021823;28;20072;-66
2023/07/10 04:43:28;;;;;;;28.33;19.38;;;19.40;99.90;;;;;;5028850;28;20454;-66
2023/07/10 04:45:55;;;;;;;27.15;19.63;;;19.40;99.90;;;;;;5030153;28;20037;-66
2023/07/10 04:48:21;;;;;;;27.48;20.10;;;19.40;99.90;;;;;;5029650;28;20056;-66
2023/07/10 04:50:51;;;;;;;28.27;20.10;;;19.50;99.90;;;;;;5020685;28;20080;-66
2023/07/10 04:55:52;;;;;;;27.88;19.55;;;19.50;99.90;;;;;;5008954;28;20456;-72
2023/07/10 04:58:18;;;;;;;26.77;19.40;;;19.50;99.90;;;;;;4998932;28;20037;-73
2023/07/10 05:00:51;;;;;;;26.13;19.38;;;19.50;99.90;;;;;;5001422;28;20411;-72
2023/07/10 05:03:16;;;;;;;29.38;19.83;;;19.60;99.90;;;;;;4993858;28;20448;-73
2023/07/10 05:05:57;;;;;;;27.65;18.60;;;19.50;99.90;;;;;;5019185;28;20057;-72
2023/07/10 05:08:26;;;;;;;25.13;18.10;;;19.50;99.90;;;;;;5017569;28;20458;-73
2023/07/10 05:10:54;;;;;;;21.23;15.82;;;19.50;99.90;;;;;;5013246;28;20399;-73
2023/07/10 05:13:21;;;;;;;23.98;16.20;;;19.50;99.90;;;;;;5007870;28;20034;-73
2023/07/10 05:15:48;;;;;;;18.90;13.65;;;19.50;99.90;;;;;;5018692;28;20034;-72
2023/07/10 05:18:14;;;;;;;21.48;14.18;;;19.40;99.90;;;;;;5020994;28;20064;-74
2023/07/10 05:20:43;;;;;;;20.42;13.30;;;19.40;99.90;;;;;;5005408;28;20041;-74
2023/07/10 05:23:09;;;;;;;18.70;12.27;;;19.50;99.90;;;;;;5022843;28;20033;-74
2023/07/10 05:25:34;;;;;;;16.40;11.15;;;19.40;99.90;;;;;;4992376;28;20042;-73
2023/07/10 05:28:01;;;;;;;18.42;11.60;;;19.40;99.90;;;;;;4992311;28;20124;-74
2023/07/10 05:30:27;;;;;;;17.17;10.27;;;19.40;99.90;;;;;;5007344;28;20038;-74
2023/07/10 05:32:53;;;;;;;12.55;9.02;;;19.40;99.90;;;;;;5019132;28;20045;-73
2023/07/10 05:35:19;;;;;;;11.25;8.60;;;19.30;99.90;;;;;;5011045;28;20045;-73
2023/07/10 05:37:45;;;;;;;11.10;7.93;;;19.30;99.90;;;;;;5011391;28;20120;-70
2023/07/10 05:40:10;;;;;;;11.32;6.88;;;19.30;99.90;;;;;;5016743;28;20033;-70
2023/07/10 05:42:38;;;;;;;15.15;7.18;;;19.30;99.90;;;;;;5016729;28;20042;-70
2023/07/10 05:45:05;;;;;;;10.48;7.07;;;19.30;99.90;;;;;;5008592;28;20064;-70
2023/07/10 05:47:30;;;;;;;12.20;5.80;;;19.30;99.90;;;;;;5007693;28;20039;-70
2023/07/10 05:49:56;;;;;;;6.97;5.50;;;19.30;99.90;;;;;;5024444;28;20039;-70
2023/07/10 05:52:22;;;;;;;7.18;4.72;;;19.30;99.90;;;;;;5005958;28;20038;-70
2023/07/10 05:54:47;;;;;;;9.73;5.05;;;19.30;99.90;;;;;;5004755;28;20037;-70
2023/07/10 05:57:13;;;;;;;10.13;4.65;;;19.30;99.90;;;;;;5009645;28;20026;-70
2023/07/10 05:59:39;;;;;;;7.07;4.72;;;19.30;99.90;;;;;;5013430;28;20555;-70
2023/07/10 06:02:04;;;;;;;8.70;4.40;;;19.30;99.90;;;;;;5005784;28;20038;-69
2023/07/10 06:04:30;;;;;;;7.90;4.05;;;19.30;99.90;;;;;;5006332;28;20042;-69
2023/07/10 06:06:55;;;;;;;6.78;4.07;;;19.30;99.90;;;;;;4996895;28;20046;-70
2023/07/10 06:09:21;;;;;;;6.40;3.70;;;19.30;99.90;;;;;;5009978;28;20047;-70
2023/07/10 06:11:47;;;;;;;8.45;4.25;;;19.40;99.90;;;;;;5014151;28;20034;-70
2023/07/10 06:14:14;;;;;;;9.35;4.00;;;19.40;99.90;;;;;;4996007;28;20100;-70
2023/07/10 06:16:39;;;;;;;10.05;4.00;;;19.40;99.90;;;;;;5013563;28;20038;-70
2023/07/10 06:19:05;;;;;;;6.90;3.95;;;19.40;99.90;;;;;;5005102;28;20049;-70
2023/07/10 06:21:30;;;;;;;6.57;4.20;;;19.40;99.90;;;;;;4999938;28;20041;-71
2023/07/10 06:23:56;;;;;;;6.25;3.70;;;19.40;99.90;;;;;;5013416;28;20388;-70
2023/07/10 06:26:21;;;;;;;6.47;4.00;;;19.50;99.90;;;;;;5013942;28;20076;-70
2023/07/10 06:28:47;;;;;;;5.35;3.78;;;19.40;99.90;;;;;;5013680;28;20487;-70
2023/07/10 06:31:12;;;;;;;8.45;4.20;;;19.50;99.90;;;;;;5009327;28;20040;-70
2023/07/10 06:33:39;;;;;;;7.10;3.75;;;19.50;99.90;;;;;;5011763;28;20038;-70
2023/07/10 06:36:05;;;;;;;5.40;3.50;;;19.60;99.90;;;;;;5013867;28;20045;-70
2023/07/10 06:38:32;;;;;;;9.43;3.70;;;19.60;99.90;;;;;;5002463;28;20040;-69
2023/07/10 06:40:58;;;;;;;7.10;3.85;;;19.60;99.90;;;;;;5013726;28;20042;-70
2023/07/10 06:43:23;;;;;;;4.95;3.80;;;19.60;99.90;;;;;;5013401;28;20045;-69
2023/07/10 06:45:49;;;;;;;8.20;3.38;;;19.70;99.90;;;;;;5011357;28;20041;-70
2023/07/10 06:48:15;;;;;;;7.70;3.30;;;19.90;99.90;;;;;;5012186;28;20034;-69
2023/07/10 06:50:46;;;;;;;6.85;3.15;;;20.00;99.90;;;;;;4995952;28;20065;-69
2023/07/10 06:53:12;;;;;;;7.10;3.38;;;20.00;99.90;;;;;;4994497;28;20510;-69
2023/07/10 06:55:37;;;;;;;8.57;3.30;;;20.10;99.90;;;;;;4998759;28;20038;-69
2023/07/10 06:58:03;;;;;;;7.10;3.35;;;20.10;99.90;;;;;;5016608;28;20080;-70
2023/07/10 07:00:28;;;;;;;9.65;4.10;;;20.20;99.90;;;;;;5011605;28;20045;-70
2023/07/10 07:02:54;;;;;;;5.07;2.90;;;20.40;99.90;;;;;;5012615;28;20530;-69
2023/07/10 07:05:19;;;;;;;7.70;3.83;;;20.50;99.90;;;;;;5005390;28;20033;-73
2023/07/10 07:07:45;;;;;;;8.90;3.25;;;20.70;99.90;;;;;;5007044;28;20188;-72
2023/07/10 07:10:13;;;;;;;5.90;2.90;;;21.00;99.90;;;;;;5024392;28;20116;-72
2023/07/10 07:12:40;;;;;;;7.90;2.92;;;21.20;99.90;;;;;;4993678;28;20049;-72
2023/07/10 07:15:07;;;;;;;6.50;2.88;;;21.40;99.90;;;;;;5012098;28;20076;-72
2023/07/10 07:17:33;;;;;;;5.68;2.45;;;21.40;99.90;;;;;;4995367;28;20042;-73
2023/07/10 07:19:59;;;;;;;8.90;2.78;;;21.50;99.90;;;;;;5000622;28;20057;-72
2023/07/10 07:22:25;;;;;;;5.55;2.30;;;21.60;99.90;;;;;;5006026;28;20037;-72
2023/07/10 07:24:50;;;;;;;6.50;2.10;;;21.70;99.90;;;;;;5009438;28;20383;-72
2023/07/10 07:27:16;;;;;;;8.75;2.90;;;21.80;99.90;;;;;;5009535;28;20044;-72
2023/07/10 07:29:42;;;;;;;6.43;2.20;;;21.90;99.90;;;;;;5012298;28;20460;-72
2023/07/10 07:32:09;;;;;;;6.57;2.40;;;21.90;99.90;;;;;;5012619;28;20400;-72
2023/07/10 07:34:35;;;;;;;4.70;1.77;;;22.00;99.90;;;;;;5012467;28;20045;-72
2023/07/10 07:37:00;;;;;;;6.63;2.50;;;22.20;99.90;;;;;;5009615;28;20022;-71
2023/07/10 07:39:30;;;;;;;5.43;2.30;;;22.30;99.90;;;;;;5011575;28;20091;-72
2023/07/10 07:41:56;;;;;;;6.13;2.05;;;22.40;99.90;;;;;;5025530;28;20050;-71
2023/07/10 07:44:22;;;;;;;5.88;2.08;;;22.50;99.90;;;;;;5021089;28;20084;-71
2023/07/10 07:46:47;;;;;;;7.20;2.20;;;22.60;99.90;;;;;;5005788;28;20088;-72
2023/07/10 07:49:13;;;;;;;6.47;2.13;;;22.70;99.90;;;;;;5005361;28;20141;-71
2023/07/10 07:51:39;;;;;;;5.65;2.00;;;22.80;99.90;;;;;;5009748;28;20037;-71
2023/07/10 07:54:15;;;;;;;6.47;1.77;;;22.90;99.90;;;;;;5013071;28;20065;-71
2023/07/10 07:56:41;;;;;;;5.55;1.70;;;23.00;99.90;;;;;;5022988;28;20436;-71
2023/07/10 07:59:06;;;;;;;6.00;2.00;;;23.20;99.90;;;;;;4998568;28;20137;-71
2023/07/10 08:01:32;;;;;;;4.53;1.65;;;23.30;99.90;;;;;;5019121;28;20040;-71
2023/07/10 08:03:57;;;;;;;4.13;1.80;;;23.40;99.90;;;;;;5010416;28;20049;-71
2023/07/10 08:06:31;;;;;;;4.88;1.70;;;23.30;99.90;;;;;;5010623;28;20049;-71
2023/07/10 08:08:57;;;;;;;5.05;1.60;;;23.30;99.90;;;;;;5011356;28;20041;-71
2023/07/10 08:11:24;;;;;;;10.32;2.35;;;23.30;99.90;;;;;;5007631;28;20034;-71
2023/07/10 08:13:49;;;;;;;8.98;2.50;;;23.30;99.90;;;;;;5009509;28;20087;-71
2023/07/10 08:16:15;;;;;;;7.60;2.20;;;23.30;99.90;;;;;;5014500;28;20029;-71
2023/07/10 08:18:41;;;;;;;8.23;2.13;;;23.30;99.90;;;;;;5010947;28;20046;-70
2023/07/10 08:21:10;;;;;;;7.28;2.28;;;23.50;99.90;;;;;;5020873;28;20049;-70
2023/07/10 08:23:36;;;;;;;10.43;2.72;;;23.60;99.90;;;;;;5004616;28;20064;-70
2023/07/10 08:26:03;;;;;;;5.93;2.67;;;23.60;99.90;;;;;;5013885;28;20045;-70
2023/07/10 08:28:29;;;;;;;5.47;1.90;;;23.70;99.90;;;;;;5023548;28;20120;-70
2023/07/10 08:30:55;;;;;;;5.88;2.20;;;23.80;99.90;;;;;;5006133;28;20500;-70
2023/07/10 08:33:20;;;;;;;6.30;2.10;;;23.80;99.90;;;;;;5000703;28;20076;-70
2023/07/10 08:36:02;;;;;;;6.45;2.17;;;23.90;99.90;;;;;;4997672;28;20038;-70
2023/07/10 08:38:28;;;;;;;7.93;2.30;;;24.00;99.90;;;;;;5006602;28;20033;-70
2023/07/10 08:40:57;;;;;;;6.18;2.20;;;24.00;99.90;;;;;;4993120;28;20518;-70
2023/07/10 08:43:31;;;;;;;7.95;2.60;;;24.10;99.90;;;;;;5008787;28;20374;-70
2023/07/10 08:46:21;;;;;;;5.80;2.33;;;23.90;99.90;;;;;;5011651;28;20117;-70
2023/07/10 08:48:53;;;;;;;6.97;2.45;;;23.70;99.90;;;;;;5009948;28;20522;-70
2023/07/10 08:51:21;;;;;;;7.55;2.35;;;23.70;99.90;;;;;;5006325;28;20080;-70
2023/07/10 08:53:58;;;;;;;8.65;2.50;;;23.60;99.90;;;;;;5019874;28;20085;-70
2023/07/10 08:56:24;;;;;;;11.27;2.78;;;23.60;99.90;;;;;;5009863;28;20069;-70
2023/07/10 08:58:50;;;;;;;5.97;2.35;;;23.60;99.90;;;;;;5009615;28;20065;-70
2023/07/10 09:01:44;;;;;;;5.53;2.55;;;23.80;99.90;;;;;;5023233;28;20099;-70
2023/07/10 09:04:17;;;;;;;8.15;2.35;;;24.00;99.90;;;;;;5014463;28;20518;-70
2023/07/10 09:06:47;;;;;;;6.20;2.28;;;24.20;99.90;;;;;;5010059;28;20049;-70
2023/07/10 09:09:35;;;;;;;6.15;2.55;;;24.30;99.90;;;;;;5007199;28;20073;-70
2023/07/10 09:12:08;;;;;;;7.20;2.28;;;24.30;99.90;;;;;;5002973;28;20496;-70
2023/07/10 09:14:54;;;;;;;6.50;1.98;;;24.10;99.90;;;;;;5003122;28;20069;-70
2023/07/10 09:17:46;;;;;;;7.45;2.35;;;24.00;99.90;;;;;;5014447;28;20113;-71
2023/07/10 09:20:13;;;;;;;5.70;2.13;;;24.00;99.90;;;;;;5025671;28;20034;-71
2023/07/10 09:22:50;;;;;;;7.10;1.92;;;23.80;99.90;;;;;;5016859;28;20038;-70
2023/07/10 09:25:16;;;;;;;8.25;2.30;;;23.70;99.90;;;;;;5006932;28;20050;-70
2023/07/10 09:27:44;;;;;;;5.75;2.00;;;23.60;99.90;;;;;;5014709;28;20104;-70
2023/07/10 09:30:38;;;;;;;4.55;2.25;;;23.70;99.90;;;;;;5012915;28;20451;-70
2023/07/10 09:33:08;;;;;;;4.72;2.13;;;23.90;99.90;;;;;;5019205;28;20128;-71
2023/07/10 09:35:36;;;;;;;7.35;2.40;;;24.00;99.90;;;;;;5034434;28;20041;-70
2023/07/10 09:38:02;;;;;;;5.93;1.95;;;24.10;99.90;;;;;;5013336;28;20042;-71
2023/07/10 09:40:49;;;;;;;5.18;2.22;;;24.20;99.90;;;;;;4990990;28;20042;-70
2023/07/10 09:43:21;;;;;;;6.05;2.20;;;24.40;99.90;;;;;;5011192;28;20037;-70
2023/07/10 09:45:56;;;;;;;5.15;1.88;;;24.60;99.90;;;;;;4998426;28;20050;-70
2023/07/10 09:48:33;;;;;;;10.02;2.35;;;24.80;99.90;;;;;;4995236;28;20038;-68
2023/07/10 09:51:09;;;;;;;6.65;2.15;;;25.00;99.90;;;;;;5000789;28;20026;-68
2023/07/10 09:53:46;;;;;;;5.53;1.92;;;25.30;99.90;;;;;;5001257;28;20039;-67
2023/07/10 09:56:35;;;;;;;8.55;2.30;;;25.50;99.90;;;;;;5018343;28;20029;-68
2023/07/10 09:59:12;;;;;;;4.60;2.10;;;25.50;99.90;;;;;;5011770;28;20056;-68
2023/07/10 10:01:37;;;;;;;5.32;2.10;;;25.40;99.90;;;;;;5013929;28;20560;-67
2023/07/10 10:04:03;;;;;;;10.02;2.15;;;25.50;99.90;;;;;;5013093;28;20042;-67
2023/07/10 10:06:31;;;;;;;9.60;2.58;;;25.60;99.90;;;;;;5008726;28;20052;-69
2023/07/10 10:08:57;;;;;;;9.52;2.28;;;25.60;99.90;;;;;;5014231;28;20101;-68
2023/07/10 10:11:41;;;;;;;8.35;2.20;;;25.50;99.90;;;;;;5010064;28;20507;-69
2023/07/10 10:14:14;;;;;;;10.82;2.17;;;25.50;99.90;;;;;;5022679;28;20061;-69
2023/07/10 10:16:51;;;;;;;12.18;2.70;;;25.50;99.90;;;;;;5022781;28;20142;-69
2023/07/10 10:19:29;;;;;;;6.57;2.40;;;25.40;99.90;;;;;;5012328;28;20034;-68
2023/07/10 10:21:55;;;;;;;11.65;2.28;;;25.40;99.90;;;;;;5014122;28;20038;-68
2023/07/10 10:24:21;;;;;;;8.43;2.13;;;25.40;99.90;;;;;;5025077;28;20045;-68
2023/07/10 10:27:04;;;;;;;7.70;2.40;;;25.50;99.90;;;;;;5021075;28;20037;-69
2023/07/10 10:29:39;;;;;;;11.35;2.50;;;25.50;99.90;;;;;;5020516;28;20042;-69
2023/07/10 10:32:30;;;;;;;7.03;2.10;;;25.50;99.90;;;;;;5021271;28;20042;-69
2023/07/10 10:34:59;;;;;;;5.90;2.47;;;25.60;99.90;;;;;;5008715;28;20042;-69
2023/07/10 10:38:03;;;;;;;6.47;2.17;;;25.60;99.90;;;;;;5013548;28;20045;-70
2023/07/10 10:41:09;;;;;;;6.93;2.28;;;25.60;99.90;;;;;;5016062;28;20068;-69
2023/07/10 10:43:47;;;;;;;7.03;2.20;;;25.60;99.90;;;;;;5008602;28;20500;-69
2023/07/10 10:46:36;;;;;;;8.82;2.25;;;25.50;99.90;;;;;;5003809;28;20051;-69
2023/07/10 10:49:29;;;;;;;5.35;2.10;;;25.40;99.90;;;;;;5004908;28;20042;-70
2023/07/10 10:52:00;;;;;;;6.47;2.30;;;25.50;99.90;;;;;;4984724;28;20050;-70
2023/07/10 10:54:44;;;;;;;7.82;1.88;;;25.60;99.90;;;;;;5032917;22;20545;-64
2023/07/10 10:57:40;;;;;;;5.15;1.95;;;25.80;99.90;;;;;;5031481;28;20041;-63
2023/07/10 11:00:34;;;;;;;5.32;1.83;;;25.70;98.40;;;;;;5027810;28;20048;-63
2023/07/10 11:03:32;;;;;;;7.93;2.45;;;25.80;99.60;;;;;;5021721;28;20037;-63
2023/07/10 11:06:19;;;;;;;10.65;2.47;;;25.70;98.30;;;;;;5022568;28;20041;-64
2023/07/10 11:08:50;;;;;;;6.78;2.05;;;25.70;98.70;;;;;;5023432;28;20491;-63
2023/07/10 11:11:32;;;;;;;;;;;25.70;98.70;;;;;;5019611;28;20519;-64
2023/07/10 11:14:02;;;;;;;5.75;1.98;;;25.80;99.00;;;;;;5024478;28;20016;-65
2023/07/10 11:16:30;;;;;;;8.90;2.05;;;25.90;99.50;;;;;;5021061;28;20068;-65
2023/07/10 11:18:56;;;;;;;7.63;1.83;;;26.10;98.60;;;;;;5024412;28;20035;-64
2023/07/10 11:21:22;;;;;;;8.32;1.63;;;26.30;98.00;;;;;;5024358;28;20160;-64
2023/07/10 11:23:49;;;;;;;5.75;1.55;;;26.30;97.00;;;;;;5021280;28;20120;-65
2023/07/10 11:26:19;;;;;;;4.20;1.50;;;26.30;96.20;;;;;;5022702;28;20407;-65
2023/07/10 11:29:19;;;;;;;5.82;1.80;;;26.40;95.90;;;;;;5029606;28;20069;-65
2023/07/10 11:31:52;;;;;;;5.63;1.70;;;26.40;95.00;;;;;;5023503;28;20041;-64
2023/07/10 11:34:29;;;;;;;6.85;1.80;;;26.40;93.30;;;;;;5027357;28;20034;-65
2023/07/10 11:36:55;;;;;;;6.15;1.45;;;26.40;94.20;;;;;;5027131;28;20037;-64
2023/07/10 11:39:36;;;;;;;7.05;1.77;;;26.40;94.10;;;;;;5027040;28;20042;-65
2023/07/10 11:42:02;;;;;;;7.35;1.95;;;26.50;93.10;;;;;;5031221;28;20029;-64
2023/07/10 11:44:28;;;;;;;5.70;1.63;;;26.50;93.60;;;;;;5027185;28;20092;-64
2023/07/10 11:46:57;;;;;;;7.60;1.80;;;26.60;93.00;;;;;;5028686;28;20125;-64
2023/07/10 11:49:25;;;;;;;8.77;1.95;;;26.40;92.80;;;;;;5023903;28;20048;-64
2023/07/10 11:52:18;;;;;;;7.80;1.80;;;26.40;93.30;;;;;;5024149;28;20079;-64
2023/07/10 11:54:49;;;;;;;4.72;1.70;;;26.40;93.40;;;;;;5026232;28;20499;-64
2023/07/10 11:57:33;;;;;;;8.50;1.85;;;26.50;93.20;;;;;;5031370;28;20041;-64
2023/07/10 12:00:20;;;;;;;7.30;1.75;;;26.50;92.50;;;;;;5030477;28;20038;-64
2023/07/10 12:02:52;;;;;;;9.73;2.20;;;26.50;92.50;;;;;;5027872;28;20049;-64
2023/07/10 12:05:35;;;;;;;5.97;1.92;;;26.20;92.20;;;;;;5028284;28;20041;-64
2023/07/10 12:08:13;;;;;;;3.30;1.33;;;26.20;92.90;;;;;;5023490;28;20511;-64
2023/07/10 12:10:46;;;;;;;7.45;1.40;;;26.20;93.10;;;;;;5031924;28;20045;-64
2023/07/10 12:13:27;;;;;;;8.00;1.80;;;26.00;92.10;;;;;;5031457;28;20037;-64
2023/07/10 12:15:55;;;;;;;6.72;2.63;;;25.90;93.00;;;;;;5031241;28;20037;-64
2023/07/10 12:18:32;;;;;;;5.57;1.48;;;26.00;92.70;;;;;;5030659;28;20124;-64
2023/07/10 12:21:03;;;;;;;5.80;1.48;;;26.10;92.20;;;;;;5031721;28;20593;-64
2023/07/10 12:23:28;;;;;;;;;;;26.00;91.40;;;;;;5031622;28;20503;-63
2023/07/10 12:25:55;;;;;;;4.53;1.38;;;25.90;91.90;;;;;;5031711;28;19917;-63
2023/07/10 12:28:26;;;;;;;4.60;1.50;;;25.80;91.60;;;;;;5031649;28;20052;-64
2023/07/10 12:30:53;;;;;;;7.68;1.85;;;25.70;91.60;;;;;;5019033;28;20037;-63
2023/07/10 12:33:28;;;;;;;5.78;1.90;;;25.50;91.80;;;;;;5019309;28;20084;-63
2023/07/10 12:35:54;;;;;;;7.25;1.83;;;25.40;92.40;;;;;;5022288;28;20037;-64
2023/07/10 12:38:21;;;;;;;8.57;2.00;;;25.50;91.80;;;;;;5011970;28;20391;-64
2023/07/10 12:40:46;;;;;;;6.47;1.83;;;25.60;90.90;;;;;;5011817;28;20045;-64
2023/07/10 12:43:24;;;;;;;5.65;1.73;;;25.60;90.90;;;;;;5010577;28;20046;-64
2023/07/10 12:45:57;;;;;;;5.68;1.73;;;25.80;91.80;;;;;;5015997;28;20034;-64
2023/07/10 12:48:26;;;;;;;5.30;1.98;;;25.80;91.70;;;;;;5031079;28;20095;-64
2023/07/10 12:50:56;;;;;;;5.32;1.60;;;25.90;92.20;;;;;;5029183;28;20068;-64
2023/07/10 12:53:25;;;;;;;4.53;1.10;;;26.10;92.00;;;;;;5035215;28;20545;-63
2023/07/10 12:56:01;;;;;;;9.07;1.70;;;26.30;90.80;;;;;;5035047;28;20561;-64